Flight Track Log - Related Links

Times and Time Zones

All times are in EDT time to prevent confusion due to time zone crossing. See the SWA920 flight status page for this flight to view local times or setup timezone preferences in your user account.

Time Position Orientation Groundspeed Altitude Reporting Facility
EDT Latitude Longitude Course Direction KTS MPH feet Rate Location/Type
Mon 06:16:27 PM 36.1000 -86.6833 152° Southeast 152 175 1,500  Level Nashville TRACON
Mon 06:17:45 PM 36.0500 -86.6500 152° Southeast 182 209 3,700 1,875 Climbing Nashville TRACON
Mon 06:18:51 PM 36.0500 -86.5500 90° East 253 291 6,000 2,312 Climbing Nashville TRACON
Mon 06:19:34 PM 36.0483 -86.4986 92° East 265 305 7,900 2,563 Climbing Memphis Center
Mon 06:20:34 PM 36.0556 -86.3956 85° East 313 360 10,400 9,033 Climbing Memphis Center
Mon 06:22:34 PM 36.0675 -86.1253 87° East 387 445 35,000 2,767 Climbing Memphis Center
Mon 06:23:34 PM 36.0667 -85.9817 90° East 415 478 18,700 -3,166 Descending Memphis Center
Mon 06:25:53 PM 36.0397 -85.6361 95° East 455 524 24,500 2,442 Climbing Atlanta Center
Mon 06:26:53 PM 36.0292 -85.4767 95° East 461 531 26,800 2,300 Climbing Atlanta Center
Mon 06:27:53 PM 36.0164 -85.3119 95° East 466 536 29,100 2,350 Climbing Atlanta Center
Mon 06:28:53 PM 36.0033 -85.1347 95° East 471 542 31,500 2,150 Climbing Atlanta Center
Mon 06:29:53 PM 35.9525 -84.9956 114° Southeast 450 518 33,400 1,700 Climbing Atlanta Center
Mon 06:30:53 PM 35.8572 -84.8969 140° Southeast 443 510 34,900 800 Climbing Atlanta Center
Mon 06:31:53 PM 35.7597 -84.7936 139° Southeast 453 521 35,000 50 Climbing Atlanta Center
Mon 06:32:53 PM 35.6622 -84.6881 139° Southeast 459 528 35,000  Level Atlanta Center
Mon 06:33:53 PM 35.5669 -84.5850 139° Southeast 459 528 35,000  Level Atlanta Center
Mon 06:34:53 PM 35.4692 -84.4800 139° Southeast 465 535 35,000  Level Atlanta Center
Mon 06:35:53 PM 35.3756 -84.3775 138° Southeast 465 535 35,000  Level Atlanta Center
Mon 06:36:53 PM 35.2778 -84.2753 140° Southeast 459 528 35,000  Level Atlanta Center
Mon 06:37:53 PM 35.1842 -84.1758 139° Southeast 459 528 35,000  Level Atlanta Center
Mon 06:38:53 PM 35.0903 -84.0742 138° Southeast 459 528 35,000  Level Atlanta Center
Mon 06:39:53 PM 34.9942 -83.9728 139° Southeast 459 528 35,000  Level Atlanta Center
Mon 06:40:53 PM 34.9003 -83.8514 133° Southeast 442 509 35,000  Level Atlanta Center
Mon 06:41:53 PM 34.8208 -83.7353 130° Southeast 450 518 35,000  Level Atlanta Center
Mon 06:42:53 PM 34.7369 -83.6167 131° Southeast 450 518 35,000  Level Atlanta Center
Mon 06:43:53 PM 34.6550 -83.4983 130° Southeast 458 527 35,000  Level Atlanta Center
Mon 06:44:53 PM 34.5814 -83.3953 131° Southeast 452 520 35,000  Level Atlanta Center
Mon 06:45:53 PM 34.5014 -83.2775 129° Southeast 452 520 35,000  Level Atlanta Center
Mon 06:46:53 PM 34.4172 -83.1575 130° Southeast 457 526 35,000 -300 Level Atlanta Center
Mon 06:47:53 PM 34.3369 -83.0400 130° Southeast 457 526 34,400 -800 Descending Atlanta Center
Mon 06:48:53 PM 34.2547 -82.9281 132° Southeast 449 517 33,400 -1,000 Descending Atlanta Center
Mon 06:49:53 PM 34.1636 -82.7986 130° Southeast 449 517 32,400 -950 Descending Atlanta Center
Mon 06:50:53 PM 34.0789 -82.6794 131° Southeast 460 529 31,500 -950 Descending Atlanta Center
Mon 06:51:53 PM 33.9942 -82.5631 131° Southeast 454 522 30,500 -1,000 Descending Atlanta Center
Mon 06:52:53 PM 33.9133 -82.4492 131° Southeast 454 522 29,500 -750 Descending Atlanta Center
Mon 06:53:53 PM 33.8283 -82.3308 131° Southeast 460 529 29,000 -250 Descending Atlanta Center
Mon 06:54:53 PM 33.7408 -82.2078 131° Southeast 460 529 29,000 -391 Level Atlanta Center
Mon 06:56:57 PM 33.6303 -81.9197 115° Southeast 475 547 27,800 -652 Descending Jacksonville Center
Mon 06:57:57 PM 33.5831 -81.7681 110° East 486 559 27,000 -900 Descending Jacksonville Center
Mon 06:58:57 PM 33.5378 -81.6242 111° Southeast 480 552 26,000 -1,000 Descending Jacksonville Center
Mon 06:59:57 PM 33.4925 -81.4731 110° East 480 552 25,000 -1,950 Descending Jacksonville Center
Mon 07:00:57 PM 33.4447 -81.3292 112° Southeast 469 540 22,100 -2,900 Descending Jacksonville Center
Mon 07:01:57 PM 33.3992 -81.1883 111° Southeast 462 532 19,200 -2,700 Descending Jacksonville Center
Mon 07:02:57 PM 33.3556 -81.0550 111° Southeast 444 511 16,700 -2,600 Descending Jacksonville Center
Mon 07:03:57 PM 33.3139 -80.9264 111° Southeast 430 495 14,000 -2,500 Descending Jacksonville Center
Mon 07:04:57 PM 33.2744 -80.8031 111° Southeast 413 475 11,700 -1,500 Descending Jacksonville Center
Mon 07:05:57 PM 33.2369 -80.6897 112° Southeast 385 443 11,000 -750 Descending Jacksonville Center
Mon 07:06:57 PM 33.1892 -80.5867 119° Southeast 367 422 10,200 -750 Descending Jacksonville Center
Mon 07:07:57 PM 33.1294 -80.5114 133° Southeast 339 390 9,500 -1,100 Descending Jacksonville Center
Mon 07:08:57 PM 33.0758 -80.4408 132° Southeast 309 356 8,000 -1,550 Descending Jacksonville Center
Mon 07:09:57 PM 33.0183 -80.3731 135° Southeast 290 334 6,400 -1,500 Descending Jacksonville Center
Mon 07:10:57 PM 32.9625 -80.3028 133° Southeast 290 334 5,000 -1,350 Descending Jacksonville Center
Mon 07:11:57 PM 32.9069 -80.2353 134° Southeast 290 334 3,700 -1,200 Descending Jacksonville Center
Mon 07:12:57 PM 32.8617 -80.1722 131° Southeast 273 314 2,600 -1,100 Descending Jacksonville Center
Mon 07:14:00 PM 32.8824 -80.0388 79° East  Level FlightAware Approximate
Mon 07:21:00 PM 32.8833 -80.0333 79° East  Level FlightAware Approximate
Mon 07:22:00 PM 32.8986 -80.0405 79° East  Level Estimated
Mon 07:23:00 PM 32.8986 -80.0405 79° East  Level Estimated
Mon 07:24:00 PM 32.8986 -80.0405 79° East  Level Estimated

Login

Don't have an account? Register now (free) for customized features, flight alerts, and more!